sensor_id;sensor_type;location;lat;lon;timestamp;P1;durP1;ratioP1;P2;durP2;ratioP2
36839;SDS011;24406;51.640;9.566;2023-10-08T00:02:16;14.60;;;8.10;;
36839;SDS011;24406;51.640;9.566;2023-10-08T00:07:22;13.70;;;7.68;;
36839;SDS011;24406;51.640;9.566;2023-10-08T00:12:25;16.98;;;7.88;;
36839;SDS011;24406;51.640;9.566;2023-10-08T00:17:30;12.70;;;7.85;;
36839;SDS011;24406;51.640;9.566;2023-10-08T00:22:32;13.05;;;7.53;;
36839;SDS011;24406;51.640;9.566;2023-10-08T00:27:36;15.82;;;8.35;;
36839;SDS011;24406;51.640;9.566;2023-10-08T00:32:40;16.67;;;8.98;;
36839;SDS011;24406;51.640;9.566;2023-10-08T00:37:41;16.30;;;7.43;;
36839;SDS011;24406;51.640;9.566;2023-10-08T00:42:45;15.38;;;7.60;;
36839;SDS011;24406;51.640;9.566;2023-10-08T00:47:48;21.35;;;8.73;;
36839;SDS011;24406;51.640;9.566;2023-10-08T00:52:52;19.70;;;9.10;;
36839;SDS011;24406;51.640;9.566;2023-10-08T00:58:01;18.20;;;8.82;;
36839;SDS011;24406;51.640;9.566;2023-10-08T01:03:10;17.00;;;8.70;;
36839;SDS011;24406;51.640;9.566;2023-10-08T01:08:16;17.60;;;8.98;;
36839;SDS011;24406;51.640;9.566;2023-10-08T01:13:23;17.65;;;9.07;;
36839;SDS011;24406;51.640;9.566;2023-10-08T01:18:28;17.60;;;9.60;;
36839;SDS011;24406;51.640;9.566;2023-10-08T01:23:34;20.75;;;10.27;;
36839;SDS011;24406;51.640;9.566;2023-10-08T01:28:37;17.73;;;10.68;;
36839;SDS011;24406;51.640;9.566;2023-10-08T01:33:38;16.85;;;10.00;;
36839;SDS011;24406;51.640;9.566;2023-10-08T01:38:48;16.30;;;9.82;;
36839;SDS011;24406;51.640;9.566;2023-10-08T01:43:50;23.33;;;10.98;;
36839;SDS011;24406;51.640;9.566;2023-10-08T01:48:53;21.77;;;10.40;;
36839;SDS011;24406;51.640;9.566;2023-10-08T01:54:01;17.95;;;10.57;;
36839;SDS011;24406;51.640;9.566;2023-10-08T01:59:04;21.30;;;10.25;;
36839;SDS011;24406;51.640;9.566;2023-10-08T02:04:06;25.48;;;11.48;;
36839;SDS011;24406;51.640;9.566;2023-10-08T02:09:11;24.60;;;11.75;;
36839;SDS011;24406;51.640;9.566;2023-10-08T02:14:13;20.00;;;10.60;;
36839;SDS011;24406;51.640;9.566;2023-10-08T02:19:15;21.63;;;11.60;;
36839;SDS011;24406;51.640;9.566;2023-10-08T02:24:20;24.42;;;13.40;;
36839;SDS011;24406;51.640;9.566;2023-10-08T02:29:25;21.92;;;12.70;;
36839;SDS011;24406;51.640;9.566;2023-10-08T02:34:27;21.55;;;12.50;;
36839;SDS011;24406;51.640;9.566;2023-10-08T02:39:32;18.13;;;12.00;;
36839;SDS011;24406;51.640;9.566;2023-10-08T02:44:35;5.40;;;2.67;;
36839;SDS011;24406;51.640;9.566;2023-10-08T02:49:41;4.68;;;1.20;;
36839;SDS011;24406;51.640;9.566;2023-10-08T02:54:46;1.00;;;0.90;;
36839;SDS011;24406;51.640;9.566;2023-10-08T02:59:47;1.00;;;0.70;;
36839;SDS011;24406;51.640;9.566;2023-10-08T03:04:49;0.75;;;0.73;;
36839;SDS011;24406;51.640;9.566;2023-10-08T03:09:54;0.75;;;0.68;;
36839;SDS011;24406;51.640;9.566;2023-10-08T03:15:04;1.33;;;0.73;;
36839;SDS011;24406;51.640;9.566;2023-10-08T03:20:14;0.50;;;0.50;;
36839;SDS011;24406;51.640;9.566;2023-10-08T03:25:31;1.42;;;0.50;;
36839;SDS011;24406;51.640;9.566;2023-10-08T03:30:41;1.38;;;0.73;;
36839;SDS011;24406;51.640;9.566;2023-10-08T03:35:51;0.73;;;0.60;;
36839;SDS011;24406;51.640;9.566;2023-10-08T03:40:56;1.33;;;0.65;;
36839;SDS011;24406;51.640;9.566;2023-10-08T03:46:04;0.63;;;0.60;;
36839;SDS011;24406;51.640;9.566;2023-10-08T03:51:05;0.43;;;0.43;;
36839;SDS011;24406;51.640;9.566;2023-10-08T03:56:12;0.38;;;0.38;;
36839;SDS011;24406;51.640;9.566;2023-10-08T04:01:14;0.40;;;0.40;;
36839;SDS011;24406;51.640;9.566;2023-10-08T04:06:19;0.30;;;0.30;;
36839;SDS011;24406;51.640;9.566;2023-10-08T04:11:31;2.83;;;0.30;;
36839;SDS011;24406;51.640;9.566;2023-10-08T04:16:35;0.30;;;0.30;;
36839;SDS011;24406;51.640;9.566;2023-10-08T04:21:37;0.30;;;0.30;;
36839;SDS011;24406;51.640;9.566;2023-10-08T04:26:42;0.30;;;0.30;;
36839;SDS011;24406;51.640;9.566;2023-10-08T04:31:44;0.40;;;0.40;;
36839;SDS011;24406;51.640;9.566;2023-10-08T04:36:46;0.30;;;0.30;;
36839;SDS011;24406;51.640;9.566;2023-10-08T04:41:55;1.90;;;0.30;;
36839;SDS011;24406;51.640;9.566;2023-10-08T04:46:59;0.43;;;0.20;;
36839;SDS011;24406;51.640;9.566;2023-10-08T04:52:07;0.30;;;0.30;;
36839;SDS011;24406;51.640;9.566;2023-10-08T04:57:16;0.20;;;0.20;;
36839;SDS011;24406;51.640;9.566;2023-10-08T05:02:19;1.05;;;0.40;;
36839;SDS011;24406;51.640;9.566;2023-10-08T05:07:21;0.28;;;0.28;;
36839;SDS011;24406;51.640;9.566;2023-10-08T05:12:41;0.30;;;0.30;;
36839;SDS011;24406;51.640;9.566;2023-10-08T05:17:50;0.30;;;0.30;;
36839;SDS011;24406;51.640;9.566;2023-10-08T05:22:58;1.38;;;0.40;;
36839;SDS011;24406;51.640;9.566;2023-10-08T05:28:17;0.40;;;0.40;;
36839;SDS011;24406;51.640;9.566;2023-10-08T05:33:24;0.77;;;0.50;;
36839;SDS011;24406;51.640;9.566;2023-10-08T05:38:28;1.65;;;0.75;;
36839;SDS011;24406;51.640;9.566;2023-10-08T05:43:50;1.52;;;0.70;;
36839;SDS011;24406;51.640;9.566;2023-10-08T05:49:14;3.83;;;0.80;;
36839;SDS011;24406;51.640;9.566;2023-10-08T05:54:42;2.40;;;0.88;;
36839;SDS011;24406;51.640;9.566;2023-10-08T06:00:10;1.95;;;1.00;;
36839;SDS011;24406;51.640;9.566;2023-10-08T06:05:30;2.90;;;0.98;;
36839;SDS011;24406;51.640;9.566;2023-10-08T06:10:33;1.13;;;0.98;;
36839;SDS011;24406;51.640;9.566;2023-10-08T06:15:46;2.03;;;1.02;;
36839;SDS011;24406;51.640;9.566;2023-10-08T06:20:51;2.20;;;0.98;;
36839;SDS011;24406;51.640;9.566;2023-10-08T06:25:55;2.28;;;1.30;;
36839;SDS011;24406;51.640;9.566;2023-10-08T06:30:59;6.22;;;1.30;;
36839;SDS011;24406;51.640;9.566;2023-10-08T06:36:01;3.50;;;1.10;;
36839;SDS011;24406;51.640;9.566;2023-10-08T06:41:07;2.17;;;1.10;;
36839;SDS011;24406;51.640;9.566;2023-10-08T06:46:16;2.88;;;1.02;;
36839;SDS011;24406;51.640;9.566;2023-10-08T06:51:19;3.55;;;1.17;;
36839;SDS011;24406;51.640;9.566;2023-10-08T06:56:21;3.42;;;1.42;;
36839;SDS011;24406;51.640;9.566;2023-10-08T07:01:25;2.25;;;0.95;;
36839;SDS011;24406;51.640;9.566;2023-10-08T07:06:38;4.88;;;1.00;;
36839;SDS011;24406;51.640;9.566;2023-10-08T07:11:40;4.15;;;1.15;;
36839;SDS011;24406;51.640;9.566;2023-10-08T07:16:47;3.08;;;1.35;;
36839;SDS011;24406;51.640;9.566;2023-10-08T07:21:52;4.50;;;1.40;;
36839;SDS011;24406;51.640;9.566;2023-10-08T07:27:03;5.30;;;1.65;;
36839;SDS011;24406;51.640;9.566;2023-10-08T07:32:10;2.88;;;1.80;;
36839;SDS011;24406;51.640;9.566;2023-10-08T07:37:12;3.92;;;1.80;;
36839;SDS011;24406;51.640;9.566;2023-10-08T07:42:15;5.60;;;1.42;;
36839;SDS011;24406;51.640;9.566;2023-10-08T07:47:18;4.00;;;1.45;;
36839;SDS011;24406;51.640;9.566;2023-10-08T07:52:21;7.07;;;2.28;;
36839;SDS011;24406;51.640;9.566;2023-10-08T07:57:23;4.95;;;2.85;;
36839;SDS011;24406;51.640;9.566;2023-10-08T08:02:28;1.92;;;1.67;;
36839;SDS011;24406;51.640;9.566;2023-10-08T08:07:31;2.92;;;1.45;;
36839;SDS011;24406;51.640;9.566;2023-10-08T08:12:32;1.63;;;1.35;;
36839;SDS011;24406;51.640;9.566;2023-10-08T08:17:36;2.75;;;1.48;;
36839;SDS011;24406;51.640;9.566;2023-10-08T08:22:38;7.00;;;2.25;;
36839;SDS011;24406;51.640;9.566;2023-10-08T08:27:40;7.93;;;1.55;;
36839;SDS011;24406;51.640;9.566;2023-10-08T08:32:45;4.22;;;2.00;;
36839;SDS011;24406;51.640;9.566;2023-10-08T08:37:48;5.65;;;2.05;;
36839;SDS011;24406;51.640;9.566;2023-10-08T08:42:50;4.25;;;1.73;;
36839;SDS011;24406;51.640;9.566;2023-10-08T08:47:53;2.25;;;1.52;;
36839;SDS011;24406;51.640;9.566;2023-10-08T08:52:55;2.58;;;1.45;;
36839;SDS011;24406;51.640;9.566;2023-10-08T08:57:58;6.38;;;1.52;;
36839;SDS011;24406;51.640;9.566;2023-10-08T09:03:02;2.55;;;1.60;;
36839;SDS011;24406;51.640;9.566;2023-10-08T09:08:06;2.78;;;1.35;;
36839;SDS011;24406;51.640;9.566;2023-10-08T09:13:09;6.63;;;1.85;;
36839;SDS011;24406;51.640;9.566;2023-10-08T09:18:12;4.25;;;1.48;;
36839;SDS011;24406;51.640;9.566;2023-10-08T09:23:16;4.35;;;1.52;;
36839;SDS011;24406;51.640;9.566;2023-10-08T09:28:18;5.70;;;1.60;;
36839;SDS011;24406;51.640;9.566;2023-10-08T09:33:23;4.38;;;1.67;;
36839;SDS011;24406;51.640;9.566;2023-10-08T09:38:24;7.85;;;2.45;;
36839;SDS011;24406;51.640;9.566;2023-10-08T09:43:30;2.45;;;1.48;;
36839;SDS011;24406;51.640;9.566;2023-10-08T09:48:33;3.83;;;1.65;;
36839;SDS011;24406;51.640;9.566;2023-10-08T09:53:42;2.10;;;1.30;;
36839;SDS011;24406;51.640;9.566;2023-10-08T09:58:47;2.80;;;1.48;;
36839;SDS011;24406;51.640;9.566;2023-10-08T10:03:51;3.67;;;1.38;;
36839;SDS011;24406;51.640;9.566;2023-10-08T10:08:55;2.67;;;1.90;;
36839;SDS011;24406;51.640;9.566;2023-10-08T10:13:57;5.97;;;1.60;;
36839;SDS011;24406;51.640;9.566;2023-10-08T10:19:02;4.65;;;1.38;;
36839;SDS011;24406;51.640;9.566;2023-10-08T10:24:04;3.95;;;1.63;;
36839;SDS011;24406;51.640;9.566;2023-10-08T10:29:23;4.35;;;1.92;;
36839;SDS011;24406;51.640;9.566;2023-10-08T10:34:29;4.85;;;1.65;;
36839;SDS011;24406;51.640;9.566;2023-10-08T10:39:35;1.75;;;1.20;;
36839;SDS011;24406;51.640;9.566;2023-10-08T10:44:40;7.15;;;1.60;;
36839;SDS011;24406;51.640;9.566;2023-10-08T10:49:43;4.88;;;2.00;;
36839;SDS011;24406;51.640;9.566;2023-10-08T10:54:52;6.78;;;2.00;;
36839;SDS011;24406;51.640;9.566;2023-10-08T11:00:18;7.72;;;1.20;;
36839;SDS011;24406;51.640;9.566;2023-10-08T11:05:41;4.25;;;1.40;;
36839;SDS011;24406;51.640;9.566;2023-10-08T11:10:48;1.83;;;1.30;;
36839;SDS011;24406;51.640;9.566;2023-10-08T11:15:51;3.72;;;1.77;;
36839;SDS011;24406;51.640;9.566;2023-10-08T11:21:04;3.75;;;1.35;;
36839;SDS011;24406;51.640;9.566;2023-10-08T11:26:13;3.42;;;1.17;;
36839;SDS011;24406;51.640;9.566;2023-10-08T11:31:17;4.60;;;1.50;;
36839;SDS011;24406;51.640;9.566;2023-10-08T11:36:21;4.22;;;1.30;;
36839;SDS011;24406;51.640;9.566;2023-10-08T11:41:28;11.70;;;2.10;;
36839;SDS011;24406;51.640;9.566;2023-10-08T11:46:31;6.00;;;2.08;;
36839;SDS011;24406;51.640;9.566;2023-10-08T11:51:39;2.87;;;1.13;;
36839;SDS011;24406;51.640;9.566;2023-10-08T11:56:41;3.95;;;1.27;;
36839;SDS011;24406;51.640;9.566;2023-10-08T12:01:42;4.45;;;1.60;;
36839;SDS011;24406;51.640;9.566;2023-10-08T12:06:45;3.50;;;1.15;;
36839;SDS011;24406;51.640;9.566;2023-10-08T12:11:48;5.28;;;1.48;;
36839;SDS011;24406;51.640;9.566;2023-10-08T12:16:51;4.85;;;1.80;;
36839;SDS011;24406;51.640;9.566;2023-10-08T12:21:54;5.70;;;1.30;;
36839;SDS011;24406;51.640;9.566;2023-10-08T12:26:55;4.35;;;1.60;;
36839;SDS011;24406;51.640;9.566;2023-10-08T12:31:58;5.47;;;1.50;;
36839;SDS011;24406;51.640;9.566;2023-10-08T12:37:02;4.60;;;1.20;;
36839;SDS011;24406;51.640;9.566;2023-10-08T12:42:03;4.22;;;1.48;;
36839;SDS011;24406;51.640;9.566;2023-10-08T12:47:05;2.92;;;1.15;;
36839;SDS011;24406;51.640;9.566;2023-10-08T12:52:08;6.10;;;1.40;;
36839;SDS011;24406;51.640;9.566;2023-10-08T12:57:12;6.05;;;1.30;;
36839;SDS011;24406;51.640;9.566;2023-10-08T13:02:19;3.70;;;1.40;;
36839;SDS011;24406;51.640;9.566;2023-10-08T13:07:22;8.77;;;2.03;;
36839;SDS011;24406;51.640;9.566;2023-10-08T13:12:23;4.75;;;1.27;;
36839;SDS011;24406;51.640;9.566;2023-10-08T13:17:25;3.80;;;1.48;;
36839;SDS011;24406;51.640;9.566;2023-10-08T13:22:28;8.50;;;1.70;;
36839;SDS011;24406;51.640;9.566;2023-10-08T13:27:29;5.70;;;1.83;;
36839;SDS011;24406;51.640;9.566;2023-10-08T13:32:32;6.47;;;1.60;;
36839;SDS011;24406;51.640;9.566;2023-10-08T13:37:36;3.53;;;1.60;;
36839;SDS011;24406;51.640;9.566;2023-10-08T13:42:38;5.28;;;1.50;;
36839;SDS011;24406;51.640;9.566;2023-10-08T13:47:41;3.63;;;1.05;;
36839;SDS011;24406;51.640;9.566;2023-10-08T13:52:44;4.47;;;1.45;;
36839;SDS011;24406;51.640;9.566;2023-10-08T13:57:46;3.70;;;1.25;;
36839;SDS011;24406;51.640;9.566;2023-10-08T14:02:48;7.05;;;1.30;;
36839;SDS011;24406;51.640;9.566;2023-10-08T14:07:52;5.00;;;1.20;;
36839;SDS011;24406;51.640;9.566;2023-10-08T14:12:54;3.22;;;1.20;;
36839;SDS011;24406;51.640;9.566;2023-10-08T14:17:56;3.58;;;1.30;;
36839;SDS011;24406;51.640;9.566;2023-10-08T14:23:02;4.03;;;1.08;;
36839;SDS011;24406;51.640;9.566;2023-10-08T14:28:04;2.78;;;1.27;;
36839;SDS011;24406;51.640;9.566;2023-10-08T14:33:08;2.92;;;1.00;;
36839;SDS011;24406;51.640;9.566;2023-10-08T14:38:14;4.20;;;1.73;;
36839;SDS011;24406;51.640;9.566;2023-10-08T14:43:33;2.67;;;1.05;;
36839;SDS011;24406;51.640;9.566;2023-10-08T14:48:38;3.88;;;1.30;;
36839;SDS011;24406;51.640;9.566;2023-10-08T14:53:42;8.35;;;1.23;;
36839;SDS011;24406;51.640;9.566;2023-10-08T14:58:43;2.10;;;1.10;;
36839;SDS011;24406;51.640;9.566;2023-10-08T15:03:45;3.22;;;1.13;;
36839;SDS011;24406;51.640;9.566;2023-10-08T15:08:48;2.42;;;1.15;;
36839;SDS011;24406;51.640;9.566;2023-10-08T15:13:50;3.00;;;1.23;;
36839;SDS011;24406;51.640;9.566;2023-10-08T15:18:54;4.82;;;1.40;;
36839;SDS011;24406;51.640;9.566;2023-10-08T15:23:58;3.03;;;1.33;;
36839;SDS011;24406;51.640;9.566;2023-10-08T15:34:07;2.92;;;1.08;;
36839;SDS011;24406;51.640;9.566;2023-10-08T15:39:09;5.70;;;1.23;;
36839;SDS011;24406;51.640;9.566;2023-10-08T15:44:12;5.20;;;1.38;;
36839;SDS011;24406;51.640;9.566;2023-10-08T15:49:13;2.55;;;0.88;;
36839;SDS011;24406;51.640;9.566;2023-10-08T15:54:16;3.30;;;1.35;;
36839;SDS011;24406;51.640;9.566;2023-10-08T15:59:20;3.00;;;1.65;;
36839;SDS011;24406;51.640;9.566;2023-10-08T16:04:22;6.15;;;1.27;;
36839;SDS011;24406;51.640;9.566;2023-10-08T16:09:27;5.97;;;1.30;;
36839;SDS011;24406;51.640;9.566;2023-10-08T16:14:29;3.60;;;1.42;;
36839;SDS011;24406;51.640;9.566;2023-10-08T16:19:30;5.53;;;1.50;;
36839;SDS011;24406;51.640;9.566;2023-10-08T16:24:34;1.67;;;1.10;;
36839;SDS011;24406;51.640;9.566;2023-10-08T16:29:35;2.10;;;0.90;;
36839;SDS011;24406;51.640;9.566;2023-10-08T16:34:37;2.85;;;1.05;;
36839;SDS011;24406;51.640;9.566;2023-10-08T16:39:40;3.08;;;1.40;;
36839;SDS011;24406;51.640;9.566;2023-10-08T16:44:41;2.75;;;1.13;;
36839;SDS011;24406;51.640;9.566;2023-10-08T16:49:42;7.10;;;1.63;;
36839;SDS011;24406;51.640;9.566;2023-10-08T16:54:45;5.05;;;1.10;;
36839;SDS011;24406;51.640;9.566;2023-10-08T16:59:47;1.90;;;0.90;;
36839;SDS011;24406;51.640;9.566;2023-10-08T17:04:49;2.20;;;1.10;;
36839;SDS011;24406;51.640;9.566;2023-10-08T17:09:52;4.20;;;1.17;;
36839;SDS011;24406;51.640;9.566;2023-10-08T17:14:53;3.10;;;1.45;;
36839;SDS011;24406;51.640;9.566;2023-10-08T17:19:55;5.20;;;1.80;;
36839;SDS011;24406;51.640;9.566;2023-10-08T17:24:58;4.28;;;1.05;;
36839;SDS011;24406;51.640;9.566;2023-10-08T17:29:59;2.00;;;1.77;;
36839;SDS011;24406;51.640;9.566;2023-10-08T17:35:01;3.25;;;1.85;;
36839;SDS011;24406;51.640;9.566;2023-10-08T17:40:04;3.92;;;3.53;;
36839;SDS011;24406;51.640;9.566;2023-10-08T17:45:08;4.10;;;1.40;;
36839;SDS011;24406;51.640;9.566;2023-10-08T17:50:14;3.85;;;1.13;;
36839;SDS011;24406;51.640;9.566;2023-10-08T17:55:17;5.03;;;2.00;;
36839;SDS011;24406;51.640;9.566;2023-10-08T18:00:20;4.78;;;1.35;;
36839;SDS011;24406;51.640;9.566;2023-10-08T18:05:24;3.83;;;1.73;;
36839;SDS011;24406;51.640;9.566;2023-10-08T18:10:28;3.70;;;1.60;;
36839;SDS011;24406;51.640;9.566;2023-10-08T18:15:31;2.92;;;1.73;;
36839;SDS011;24406;51.640;9.566;2023-10-08T18:20:35;7.78;;;1.95;;
36839;SDS011;24406;51.640;9.566;2023-10-08T18:25:45;5.55;;;1.80;;
36839;SDS011;24406;51.640;9.566;2023-10-08T18:30:47;5.78;;;2.13;;
36839;SDS011;24406;51.640;9.566;2023-10-08T18:35:50;4.65;;;2.47;;
36839;SDS011;24406;51.640;9.566;2023-10-08T18:40:53;3.95;;;1.60;;
36839;SDS011;24406;51.640;9.566;2023-10-08T18:45:54;3.33;;;1.92;;
36839;SDS011;24406;51.640;9.566;2023-10-08T18:51:03;6.28;;;1.52;;
36839;SDS011;24406;51.640;9.566;2023-10-08T18:56:07;6.25;;;1.90;;
36839;SDS011;24406;51.640;9.566;2023-10-08T19:01:11;14.98;;;10.25;;
36839;SDS011;24406;51.640;9.566;2023-10-08T19:06:13;7.47;;;3.47;;
36839;SDS011;24406;51.640;9.566;2023-10-08T19:11:17;4.22;;;1.42;;
36839;SDS011;24406;51.640;9.566;2023-10-08T19:16:19;2.85;;;1.40;;
36839;SDS011;24406;51.640;9.566;2023-10-08T19:21:20;4.60;;;1.40;;
36839;SDS011;24406;51.640;9.566;2023-10-08T19:26:27;5.00;;;1.48;;
36839;SDS011;24406;51.640;9.566;2023-10-08T19:31:29;5.45;;;1.75;;
36839;SDS011;24406;51.640;9.566;2023-10-08T19:36:30;4.60;;;1.58;;
36839;SDS011;24406;51.640;9.566;2023-10-08T19:41:33;5.32;;;1.70;;
36839;SDS011;24406;51.640;9.566;2023-10-08T19:46:35;2.20;;;1.50;;
36839;SDS011;24406;51.640;9.566;2023-10-08T19:51:37;3.55;;;1.50;;
36839;SDS011;24406;51.640;9.566;2023-10-08T19:56:41;3.63;;;1.73;;
36839;SDS011;24406;51.640;9.566;2023-10-08T20:01:42;3.50;;;1.70;;
36839;SDS011;24406;51.640;9.566;2023-10-08T20:06:44;1.65;;;1.20;;
36839;SDS011;24406;51.640;9.566;2023-10-08T20:11:47;1.67;;;1.17;;
36839;SDS011;24406;51.640;9.566;2023-10-08T20:16:49;5.15;;;1.42;;
36839;SDS011;24406;51.640;9.566;2023-10-08T20:21:54;2.58;;;1.27;;
36839;SDS011;24406;51.640;9.566;2023-10-08T20:26:57;1.77;;;1.42;;
36839;SDS011;24406;51.640;9.566;2023-10-08T20:31:59;2.22;;;1.50;;
36839;SDS011;24406;51.640;9.566;2023-10-08T20:37:04;7.60;;;1.90;;
36839;SDS011;24406;51.640;9.566;2023-10-08T20:42:08;3.72;;;1.42;;
36839;SDS011;24406;51.640;9.566;2023-10-08T20:47:10;4.35;;;1.30;;
36839;SDS011;24406;51.640;9.566;2023-10-08T20:52:13;1.77;;;1.42;;
36839;SDS011;24406;51.640;9.566;2023-10-08T20:57:19;4.93;;;1.67;;
36839;SDS011;24406;51.640;9.566;2023-10-08T21:02:21;2.70;;;1.40;;
36839;SDS011;24406;51.640;9.566;2023-10-08T21:07:23;1.30;;;1.05;;
36839;SDS011;24406;51.640;9.566;2023-10-08T21:12:26;2.35;;;1.30;;
36839;SDS011;24406;51.640;9.566;2023-10-08T21:17:29;3.53;;;1.63;;
36839;SDS011;24406;51.640;9.566;2023-10-08T21:22:31;3.35;;;1.30;;
36839;SDS011;24406;51.640;9.566;2023-10-08T21:27:34;2.78;;;1.58;;
36839;SDS011;24406;51.640;9.566;2023-10-08T21:32:37;4.32;;;1.65;;
36839;SDS011;24406;51.640;9.566;2023-10-08T21:37:40;2.88;;;1.52;;
36839;SDS011;24406;51.640;9.566;2023-10-08T21:42:44;1.38;;;1.27;;
36839;SDS011;24406;51.640;9.566;2023-10-08T21:47:48;2.08;;;1.30;;
36839;SDS011;24406;51.640;9.566;2023-10-08T21:52:51;2.88;;;1.33;;
36839;SDS011;24406;51.640;9.566;2023-10-08T21:57:54;1.30;;;1.20;;
36839;SDS011;24406;51.640;9.566;2023-10-08T22:02:56;4.68;;;2.00;;
36839;SDS011;24406;51.640;9.566;2023-10-08T22:07:59;4.20;;;1.60;;
36839;SDS011;24406;51.640;9.566;2023-10-08T22:13:05;1.45;;;1.30;;
36839;SDS011;24406;51.640;9.566;2023-10-08T22:18:08;5.03;;;1.42;;
36839;SDS011;24406;51.640;9.566;2023-10-08T22:23:10;1.83;;;1.33;;
36839;SDS011;24406;51.640;9.566;2023-10-08T22:28:17;2.20;;;1.35;;
36839;SDS011;24406;51.640;9.566;2023-10-08T22:33:20;2.53;;;1.75;;
36839;SDS011;24406;51.640;9.566;2023-10-08T22:38:25;4.55;;;1.80;;
36839;SDS011;24406;51.640;9.566;2023-10-08T22:43:30;3.40;;;1.63;;
36839;SDS011;24406;51.640;9.566;2023-10-08T22:48:36;2.00;;;1.80;;
36839;SDS011;24406;51.640;9.566;2023-10-08T22:53:43;4.65;;;1.73;;
36839;SDS011;24406;51.640;9.566;2023-10-08T22:58:46;1.98;;;1.67;;
36839;SDS011;24406;51.640;9.566;2023-10-08T23:03:48;3.97;;;1.67;;
36839;SDS011;24406;51.640;9.566;2023-10-08T23:08:52;4.10;;;1.80;;
36839;SDS011;24406;51.640;9.566;2023-10-08T23:13:55;4.45;;;2.15;;
36839;SDS011;24406;51.640;9.566;2023-10-08T23:18:59;2.72;;;1.98;;
36839;SDS011;24406;51.640;9.566;2023-10-08T23:24:01;3.08;;;1.30;;
36839;SDS011;24406;51.640;9.566;2023-10-08T23:29:08;3.15;;;2.13;;
36839;SDS011;24406;51.640;9.566;2023-10-08T23:34:09;3.58;;;1.70;;
36839;SDS011;24406;51.640;9.566;2023-10-08T23:39:13;2.30;;;1.70;;
36839;SDS011;24406;51.640;9.566;2023-10-08T23:44:21;4.85;;;2.00;;
36839;SDS011;24406;51.640;9.566;2023-10-08T23:49:30;2.63;;;1.60;;
36839;SDS011;24406;51.640;9.566;2023-10-08T23:54:45;2.67;;;1.55;;
36839;SDS011;24406;51.640;9.566;2023-10-08T23:59:48;2.85;;;1.85;;
